Time;durP1;ratioP1;P1;durP2;ratioP2;P2;SDS_P1;SDS_P2;PMS_P1;PMS_P2;Temp;Humidity;BMP_temperature;BMP_pressure;BME280_temperature;BME280_humidity;BME280_pressure;Samples;Min_cycle;Max_cycle;Signal;HPM_P1;HPM_P2
2022/04/19 00:01:10;;;;;;;6.32;3.17;;;4.60;56.50;;;;;;5051579;28;20056;-82
2022/04/19 00:03:37;;;;;;;5.38;3.17;;;4.50;55.80;;;;;;5053257;28;20017;-82
2022/04/19 00:06:03;;;;;;;6.55;3.53;;;4.50;56.30;;;;;;5053441;28;20028;-83
2022/04/19 00:08:29;;;;;;;7.95;3.55;;;4.50;57.00;;;;;;5052979;28;20017;-87
2022/04/19 00:10:54;;;;;;;7.40;3.33;;;4.40;57.10;;;;;;5052945;28;20394;-84
2022/04/19 00:13:20;;;;;;;4.60;3.13;;;4.50;57.90;;;;;;5052151;28;20025;-82
2022/04/19 00:15:46;;;;;;;7.00;3.60;;;4.50;59.00;;;;;;5051647;28;20013;-83
2022/04/19 00:18:12;;;;;;;11.25;5.63;;;4.40;59.30;;;;;;5053062;28;20111;-88
2022/04/19 00:20:42;;;;;;;6.40;4.95;;;4.40;59.30;;;;;;5051203;28;20037;-82
2022/04/19 00:23:15;;;;;;;8.95;4.30;;;4.40;59.40;;;;;;5052970;28;20188;-87
2022/04/19 00:25:46;;;;;;;9.18;4.10;;;4.30;59.40;;;;;;5051784;28;20028;-86
2022/04/19 00:28:13;;;;;;;9.25;4.88;;;4.30;60.00;;;;;;5053238;28;20018;-87
2022/04/19 00:30:40;;;;;;;6.25;3.45;;;4.30;59.50;;;;;;5052492;28;20059;-83
2022/04/19 00:33:07;;;;;;;7.40;4.03;;;4.20;59.70;;;;;;5051532;28;20025;-86
2022/04/19 00:35:33;;;;;;;7.40;4.15;;;4.10;59.30;;;;;;5052016;28;20017;-83
2022/04/19 00:37:59;;;;;;;3.80;3.20;;;4.00;60.50;;;;;;5051326;28;20075;-83
2022/04/19 00:40:26;;;;;;;10.82;4.30;;;3.90;61.80;;;;;;5052672;28;20036;-83
2022/04/19 00:42:54;;;;;;;5.13;3.67;;;3.90;61.80;;;;;;5051099;28;20021;-83
2022/04/19 00:45:21;;;;;;;8.32;4.18;;;3.80;62.00;;;;;;5052259;28;20029;-84
2022/04/19 00:47:47;;;;;;;8.70;4.88;;;3.70;62.40;;;;;;5055023;28;20028;-86
2022/04/19 00:50:12;;;;;;;7.85;4.22;;;3.70;63.10;;;;;;5056754;28;20482;-87
2022/04/19 00:52:38;;;;;;;7.63;4.22;;;3.70;63.80;;;;;;5056626;28;20052;-84
2022/04/19 00:55:07;;;;;;;17.20;9.93;;;3.60;64.30;;;;;;5056631;28;20071;-83
2022/04/19 00:57:35;;;;;;;16.90;10.15;;;3.60;65.40;;;;;;5056530;28;20381;-86
2022/04/19 01:00:01;;;;;;;8.95;5.95;;;3.50;66.50;;;;;;5065150;28;20061;-83
2022/04/19 01:02:27;;;;;;;10.27;5.82;;;3.50;67.60;;;;;;5076565;28;20029;-85
2022/04/19 01:04:55;;;;;;;11.60;5.78;;;3.40;68.10;;;;;;5076104;28;20033;-86
2022/04/19 01:07:22;;;;;;;14.32;6.45;;;3.30;68.40;;;;;;5058503;28;20028;-83
2022/04/19 01:09:48;;;;;;;10.95;6.82;;;3.30;68.40;;;;;;5076195;28;20028;-82
2022/04/19 01:15:08;;;;;;;11.70;5.55;;;3.30;69.50;;;;;;5076141;28;20036;-83
2022/04/19 01:17:35;;;;;;;8.52;5.78;;;3.30;70.80;;;;;;5058129;28;20013;-86
2022/04/19 01:20:03;;;;;;;11.07;5.80;;;3.30;71.40;;;;;;5075863;28;20028;-86
2022/04/19 01:22:36;;;;;;;12.60;7.47;;;3.20;72.00;;;;;;5058503;28;20436;-82
2022/04/19 01:25:02;;;;;;;32.03;15.52;;;3.10;71.80;;;;;;5058434;28;20076;-86
2022/04/19 01:27:28;;;;;;;37.55;17.48;;;3.00;71.80;;;;;;5075981;28;20020;-83
2022/04/19 01:30:00;;;;;;;34.47;15.98;;;2.90;72.60;;;;;;5075787;28;20025;-88
2022/04/19 01:32:27;;;;;;;19.75;9.57;;;2.90;73.30;;;;;;5058385;28;20131;-83
2022/04/19 01:35:08;;;;;;;16.17;8.02;;;2.90;72.80;;;;;;5075561;28;20025;-82
2022/04/19 01:37:35;;;;;;;12.90;7.00;;;2.90;73.10;;;;;;5058014;28;20078;-82
2022/04/19 01:40:18;;;;;;;13.77;7.57;;;2.90;73.50;;;;;;5075711;28;20082;-87
2022/04/19 01:42:48;;;;;;;12.05;6.68;;;2.80;73.90;;;;;;5058172;28;20044;-86
2022/04/19 01:45:23;;;;;;;15.27;8.07;;;2.70;74.30;;;;;;5057572;28;20024;-88
2022/04/19 01:47:49;;;;;;;15.60;7.22;;;2.70;74.90;;;;;;5075726;28;20039;-86
2022/04/19 01:50:16;;;;;;;10.48;6.03;;;2.70;76.10;;;;;;5075656;28;20021;-83
2022/04/19 01:52:43;;;;;;;15.25;6.70;;;2.80;75.10;;;;;;5075333;28;20021;-86
2022/04/19 01:55:13;;;;;;;11.27;6.20;;;2.80;75.00;;;;;;5057332;28;20025;-84
2022/04/19 01:57:42;;;;;;;8.75;6.05;;;2.80;76.90;;;;;;5074845;28;20112;-82
2022/04/19 02:00:08;;;;;;;11.20;6.85;;;2.90;76.70;;;;;;5053841;28;20059;-86
2022/04/19 02:02:34;;;;;;;9.38;6.22;;;2.90;77.30;;;;;;5055363;28;20029;-86
2022/04/19 02:05:00;;;;;;;8.77;5.82;;;3.00;77.60;;;;;;5054204;28;20086;-82
2022/04/19 02:07:26;;;;;;;10.15;4.90;;;2.90;75.70;;;;;;5055255;28;20025;-83
2022/04/19 02:09:51;;;;;;;9.25;4.72;;;2.90;75.20;;;;;;5055043;28;20486;-87
2022/04/19 02:12:17;;;;;;;7.07;4.57;;;2.90;73.70;;;;;;5055109;28;20151;-83
2022/04/19 02:14:43;;;;;;;19.05;8.00;;;3.10;67.50;;;;;;5053660;28;20025;-82
2022/04/19 02:17:09;;;;;;;19.67;8.02;;;3.30;69.00;;;;;;5055049;28;20021;-88
2022/04/19 02:19:35;;;;;;;15.15;7.35;;;3.20;73.30;;;;;;5053934;28;20108;-83
2022/04/19 02:22:02;;;;;;;20.50;9.27;;;3.20;75.80;;;;;;5054892;28;20017;-86
2022/04/19 02:24:27;;;;;;;19.02;8.65;;;3.20;76.70;;;;;;5053631;28;20029;-82
2022/04/19 02:26:54;;;;;;;24.63;9.50;;;3.20;76.80;;;;;;5053683;28;20384;-88
2022/04/19 02:29:19;;;;;;;21.52;11.00;;;3.20;77.00;;;;;;5054766;28;20025;-86
2022/04/19 02:31:45;;;;;;;20.70;9.88;;;3.10;78.40;;;;;;5054813;28;20032;-83
2022/04/19 02:34:11;;;;;;;26.85;12.93;;;3.00;78.90;;;;;;5055083;28;20033;-84
2022/04/19 02:36:39;;;;;;;12.82;7.05;;;3.00;79.50;;;;;;5054765;28;20075;-83
2022/04/19 02:39:05;;;;;;;14.45;7.40;;;2.90;80.80;;;;;;5054804;28;20136;-86
2022/04/19 02:41:31;;;;;;;13.68;7.13;;;2.90;81.20;;;;;;5053405;28;20033;-83
2022/04/19 02:43:59;;;;;;;15.30;9.18;;;2.90;81.40;;;;;;5054307;28;20479;-86
2022/04/19 02:46:24;;;;;;;13.50;7.28;;;2.80;80.00;;;;;;5054244;28;20025;-86
2022/04/19 02:48:50;;;;;;;17.60;7.88;;;2.70;80.80;;;;;;5054851;28;20445;-83
2022/04/19 02:51:16;;;;;;;16.15;7.03;;;2.60;80.60;;;;;;5054238;28;20017;-83
2022/04/19 02:53:43;;;;;;;12.13;6.80;;;2.60;79.30;;;;;;5054544;28;20462;-83
2022/04/19 02:56:08;;;;;;;13.43;6.13;;;2.70;77.80;;;;;;5054190;28;20238;-83
2022/04/19 02:58:34;;;;;;;10.73;5.30;;;2.70;77.40;;;;;;5036256;28;20152;-83
2022/04/19 03:01:02;;;;;;;5.85;4.50;;;2.80;78.00;;;;;;5071416;28;20064;-83
2022/04/19 03:03:29;;;;;;;7.38;4.72;;;2.80;78.00;;;;;;5056198;28;20025;-83
2022/04/19 03:05:56;;;;;;;7.32;4.60;;;2.70;77.80;;;;;;5056962;28;20032;-86
2022/04/19 03:08:22;;;;;;;8.13;4.32;;;2.70;78.30;;;;;;5073073;28;20025;-82
2022/04/19 03:10:49;;;;;;;8.32;3.97;;;2.80;78.10;;;;;;5073614;28;20027;-83
2022/04/19 03:13:16;;;;;;;7.30;4.70;;;2.80;76.70;;;;;;5073829;28;20461;-85
2022/04/19 03:15:42;;;;;;;8.13;4.40;;;2.80;76.00;;;;;;5073765;28;20048;-83
2022/04/19 03:18:07;;;;;;;9.27;5.05;;;2.80;74.00;;;;;;5073753;28;20054;-84
2022/04/19 03:20:33;;;;;;;12.18;5.80;;;2.90;71.50;;;;;;5073742;28;20451;-87
2022/04/19 03:28:27;;;;;;;8.25;4.60;;;3.00;72.40;;;;;;5073840;28;20031;-82
2022/04/19 03:30:53;;;;;;;12.63;5.70;;;3.10;70.80;;;;;;5073549;28;20016;-83
2022/04/19 03:33:18;;;;;;;9.23;4.85;;;3.00;71.70;;;;;;5073575;28;20020;-86
2022/04/19 03:35:44;;;;;;;8.07;5.95;;;3.00;73.00;;;;;;5073539;28;20031;-84
2022/04/19 03:38:10;;;;;;;6.68;5.22;;;2.90;74.60;;;;;;5073343;28;20029;-84
2022/04/19 03:40:36;;;;;;;9.05;4.80;;;2.90;77.40;;;;;;5073349;28;20032;-83
2022/04/19 03:43:04;;;;;;;11.40;5.95;;;2.80;79.70;;;;;;5073105;28;20021;-85
2022/04/19 03:45:30;;;;;;;8.77;5.68;;;2.80;82.00;;;;;;5055652;28;20074;-84
2022/04/19 03:47:56;;;;;;;6.28;4.28;;;2.80;83.80;;;;;;5073721;28;20024;-86
2022/04/19 03:50:22;;;;;;;6.38;4.70;;;2.90;85.80;;;;;;5073426;28;20008;-86
2022/04/19 03:52:50;;;;;;;5.78;4.57;;;2.80;87.20;;;;;;5073113;28;20029;-85
2022/04/19 03:55:15;;;;;;;9.32;5.15;;;2.80;88.60;;;;;;5073335;28;20031;-83
2022/04/19 03:57:41;;;;;;;6.60;4.50;;;2.80;90.60;;;;;;5055220;28;20024;-83
2022/04/19 04:00:07;;;;;;;9.98;5.00;;;2.80;92.30;;;;;;5055244;28;20087;-83
2022/04/19 04:02:33;;;;;;;9.60;4.13;;;2.80;94.20;;;;;;5055534;28;20012;-85
2022/04/19 04:04:59;;;;;;;8.73;5.13;;;2.90;96.00;;;;;;5072768;28;20024;-82
2022/04/19 04:07:26;;;;;;;8.23;5.93;;;2.80;98.00;;;;;;5073114;28;20394;-83
2022/04/19 04:09:52;;;;;;;7.68;4.72;;;2.80;98.30;;;;;;5054987;28;20024;-83
2022/04/19 04:12:18;;;;;;;8.52;5.10;;;2.80;99.80;;;;;;5072834;28;20363;-85
2022/04/19 04:14:44;;;;;;;6.85;4.97;;;2.80;99.90;;;;;;5072864;28;20020;-86
2022/04/19 04:17:10;;;;;;;10.40;5.95;;;2.80;99.90;;;;;;5055422;28;20027;-86
2022/04/19 04:19:35;;;;;;;7.57;5.50;;;2.90;99.90;;;;;;5072563;28;20024;-86
2022/04/19 04:22:01;;;;;;;7.82;6.05;;;2.90;99.90;;;;;;5072707;28;20037;-84
2022/04/19 04:24:27;;;;;;;7.45;5.32;;;2.90;99.90;;;;;;5072980;28;20024;-87
2022/04/19 04:26:53;;;;;;;7.07;4.72;;;2.90;99.90;;;;;;5073107;28;20017;-85
2022/04/19 04:29:18;;;;;;;6.93;4.32;;;2.90;99.90;;;;;;5072742;28;20029;-86
2022/04/19 04:31:44;;;;;;;8.73;4.82;;;2.90;99.60;;;;;;5073103;28;20020;-85
2022/04/19 04:34:10;;;;;;;10.88;5.05;;;3.00;96.70;;;;;;5073330;28;20083;-83
2022/04/19 04:36:36;;;;;;;13.13;6.47;;;3.00;96.70;;;;;;5055084;28;20028;-83
2022/04/19 04:39:02;;;;;;;38.67;19.73;;;3.00;97.40;;;;;;5072720;28;20067;-88
2022/04/19 04:41:28;;;;;;;9.45;6.15;;;3.10;97.90;;;;;;5072578;28;20033;-83
2022/04/19 04:43:54;;;;;;;10.10;6.45;;;3.20;99.20;;;;;;5072195;28;20028;-83
2022/04/19 04:51:48;;;;;;;6.97;5.05;;;3.30;97.40;;;;;;5072515;28;20166;-85
2022/04/19 04:54:14;;;;;;;7.32;5.15;;;3.40;97.80;;;;;;5054677;28;20475;-86
2022/04/19 04:56:39;;;;;;;10.65;6.20;;;3.40;97.90;;;;;;5054193;28;20017;-87
2022/04/19 04:59:05;;;;;;;7.75;5.32;;;3.40;96.60;;;;;;5054352;28;20070;-86
2022/04/19 05:01:30;;;;;;;10.40;5.22;;;3.50;97.10;;;;;;5056125;28;20045;-86
2022/04/19 05:03:56;;;;;;;16.38;8.30;;;3.50;97.60;;;;;;5051204;28;20044;-86
2022/04/19 05:06:22;;;;;;;8.45;5.72;;;3.60;96.00;;;;;;5051527;28;20029;-86
2022/04/19 05:08:47;;;;;;;35.90;17.52;;;3.70;95.20;;;;;;5063861;28;20103;-82
2022/04/19 05:11:15;;;;;;;16.10;8.65;;;3.80;96.20;;;;;;5071470;28;20037;-84
2022/04/19 05:13:40;;;;;;;64.97;27.63;;;3.90;97.30;;;;;;5070908;28;20161;-82
2022/04/19 05:16:06;;;;;;;13.15;7.22;;;3.90;94.60;;;;;;5071177;28;20050;-86
2022/04/19 05:18:32;;;;;;;6.30;4.45;;;4.00;94.50;;;;;;5070986;28;20024;-83
2022/04/19 05:20:57;;;;;;;5.82;4.65;;;4.10;94.00;;;;;;5053595;28;20049;-86
2022/04/19 05:23:23;;;;;;;19.50;10.50;;;4.30;93.50;;;;;;5070463;28;20021;-85
2022/04/19 05:25:48;;;;;;;11.45;6.57;;;4.40;89.50;;;;;;5071259;28;20040;-83
2022/04/19 05:28:14;;;;;;;12.00;7.25;;;4.40;87.70;;;;;;5071511;28;20392;-86
2022/04/19 05:30:40;;;;;;;12.82;7.75;;;4.50;84.90;;;;;;5070873;28;20029;-86
2022/04/19 05:33:06;;;;;;;13.98;7.30;;;4.70;84.40;;;;;;5073739;28;20128;-87
2022/04/19 05:35:32;;;;;;;9.30;5.68;;;4.80;81.90;;;;;;5073735;28;20067;-83
2022/04/19 05:37:59;;;;;;;11.82;4.45;;;4.90;81.80;;;;;;5056474;28;20017;-82
2022/04/19 05:40:25;;;;;;;8.68;5.47;;;4.90;80.20;;;;;;5073043;28;20056;-81
2022/04/19 05:42:51;;;;;;;17.38;8.18;;;5.00;81.00;;;;;;5074132;28;20024;-85
2022/04/19 05:45:17;;;;;;;14.85;9.18;;;5.10;79.60;;;;;;5074291;28;20029;-86
2022/04/19 05:47:43;;;;;;;13.20;6.25;;;5.20;79.10;;;;;;5068540;28;20028;-83
2022/04/19 05:50:09;;;;;;;9.60;5.40;;;5.30;77.40;;;;;;5074024;28;20115;-86
2022/04/19 05:52:35;;;;;;;10.00;6.32;;;5.40;75.80;;;;;;5056019;28;20021;-85
2022/04/19 05:55:01;;;;;;;11.63;6.45;;;5.50;75.50;;;;;;5073801;28;20432;-83
2022/04/19 05:57:27;;;;;;;14.32;7.35;;;5.60;75.20;;;;;;5073941;28;20481;-85
2022/04/19 05:59:52;;;;;;;12.80;7.32;;;5.80;74.50;;;;;;5073813;28;20142;-86
2022/04/19 06:05:02;;;;;;;18.67;9.77;;;6.00;67.60;;;;;;5075574;28;20126;-86
2022/04/19 06:07:30;;;;;;;17.17;9.13;;;6.20;67.00;;;;;;5073733;28;20050;-83
2022/04/19 06:09:56;;;;;;;16.45;9.45;;;6.20;64.10;;;;;;5055498;28;20032;-83
2022/04/19 06:12:22;;;;;;;14.95;8.70;;;6.30;64.10;;;;;;5055497;28;20032;-87
2022/04/19 06:14:48;;;;;;;29.35;17.63;;;6.30;64.50;;;;;;5055392;28;20470;-86
2022/04/19 06:17:15;;;;;;;20.98;10.73;;;6.50;63.50;;;;;;5073415;28;20054;-83
2022/04/19 06:19:41;;;;;;;21.35;11.68;;;6.60;62.30;;;;;;5055835;28;20378;-83
2022/04/19 06:22:07;;;;;;;17.80;10.95;;;6.50;61.80;;;;;;5075611;28;20486;-85
2022/04/19 06:24:32;;;;;;;19.13;11.55;;;6.70;61.30;;;;;;5070973;28;20025;-85
2022/04/19 06:26:58;;;;;;;20.98;11.35;;;6.80;59.80;;;;;;5073958;28;20020;-85
2022/04/19 06:29:24;;;;;;;19.17;10.40;;;6.90;59.00;;;;;;5073663;28;20021;-85
2022/04/19 06:31:50;;;;;;;20.33;11.32;;;7.10;59.00;;;;;;5073778;28;20383;-84
2022/04/19 06:34:16;;;;;;;17.75;11.35;;;7.30;58.40;;;;;;5073960;28;20462;-85
2022/04/19 06:36:43;;;;;;;18.13;10.90;;;7.20;57.10;;;;;;5073461;28;20028;-85
2022/04/19 06:39:08;;;;;;;17.02;11.35;;;7.30;57.20;;;;;;5070470;28;20387;-83
2022/04/19 06:41:34;;;;;;;21.00;12.98;;;7.30;56.30;;;;;;5053946;28;20098;-83
2022/04/19 06:44:00;;;;;;;27.73;12.38;;;7.20;55.80;;;;;;5055029;28;20028;-83
2022/04/19 06:46:25;;;;;;;27.88;14.18;;;7.40;56.50;;;;;;5072539;28;20320;-83
2022/04/19 06:48:54;;;;;;;23.15;13.07;;;7.50;56.50;;;;;;5073380;28;20039;-85
2022/04/19 06:51:21;;;;;;;25.65;12.63;;;7.60;55.00;;;;;;5055162;28;20462;-85
2022/04/19 06:53:46;;;;;;;20.10;12.18;;;7.50;54.60;;;;;;5072429;28;20025;-84
2022/04/19 06:56:12;;;;;;;22.45;13.82;;;7.30;54.00;;;;;;5071868;28;20520;-84
2022/04/19 06:58:39;;;;;;;20.25;12.80;;;7.30;54.80;;;;;;5052945;28;20028;-84
2022/04/19 07:01:06;;;;;;;21.33;12.23;;;7.50;55.60;;;;;;5052708;28;20147;-87
2022/04/19 07:03:33;;;;;;;22.73;12.23;;;7.60;55.60;;;;;;5052631;28;20019;-87
2022/04/19 07:05:59;;;;;;;19.42;11.88;;;7.70;55.20;;;;;;5070800;28;20041;-86
2022/04/19 07:08:25;;;;;;;23.33;11.45;;;7.50;54.10;;;;;;5069943;28;20035;-84
2022/04/19 07:10:51;;;;;;;18.38;11.25;;;7.50;54.40;;;;;;5053456;28;20108;-86
2022/04/19 07:13:17;;;;;;;20.77;12.10;;;7.50;53.80;;;;;;5073084;28;20024;-84
2022/04/19 07:15:42;;;;;;;19.67;13.07;;;7.20;53.30;;;;;;5054561;28;20074;-87
2022/04/19 07:18:08;;;;;;;22.50;12.52;;;7.00;53.40;;;;;;5072843;28;20021;-87
2022/04/19 07:28:47;;;;;;;19.30;11.05;;;7.50;54.70;;;;;;5072927;28;20044;-87
2022/04/19 07:31:13;;;;;;;22.10;12.35;;;7.50;52.80;;;;;;5072432;28;20040;-85
2022/04/19 07:33:39;;;;;;;20.38;11.82;;;7.60;52.50;;;;;;5072526;28;20025;-87
2022/04/19 07:36:06;;;;;;;20.60;13.02;;;7.70;52.30;;;;;;5072857;28;20031;-87
2022/04/19 07:38:32;;;;;;;20.42;12.77;;;7.50;51.60;;;;;;5054243;28;20074;-86
2022/04/19 07:40:57;;;;;;;21.17;12.10;;;7.40;51.90;;;;;;5051533;28;20041;-87
2022/04/19 07:43:24;;;;;;;19.90;11.18;;;7.60;52.40;;;;;;5052225;28;20025;-85
2022/04/19 07:45:49;;;;;;;21.42;11.55;;;7.70;52.10;;;;;;5067341;28;20036;-87
2022/04/19 07:48:16;;;;;;;20.52;11.10;;;7.70;51.90;;;;;;5052459;28;20440;-86
2022/04/19 07:50:43;;;;;;;16.98;11.30;;;7.60;51.30;;;;;;5067022;28;20383;-85
2022/04/19 07:53:10;;;;;;;17.73;11.45;;;7.50;51.50;;;;;;5067263;28;20576;-87
2022/04/19 07:55:36;;;;;;;18.85;11.05;;;7.70;51.70;;;;;;5051364;28;20035;-85
2022/04/19 07:58:02;;;;;;;17.50;11.18;;;8.00;51.40;;;;;;5052228;28;20029;-84
2022/04/19 08:00:28;;;;;;;22.00;12.23;;;8.10;51.10;;;;;;5063084;28;20510;-84
2022/04/19 08:02:57;;;;;;;20.17;10.68;;;8.10;50.90;;;;;;5030662;28;20026;-86
2022/04/19 08:05:24;;;;;;;20.00;10.85;;;8.10;51.10;;;;;;5031854;28;20032;-88
2022/04/19 08:07:50;;;;;;;21.75;12.65;;;8.30;51.20;;;;;;5031150;28;20037;-84
2022/04/19 08:10:17;;;;;;;21.05;11.48;;;8.50;52.00;;;;;;5032379;28;20493;-86
2022/04/19 08:12:44;;;;;;;13.70;9.75;;;8.80;51.70;;;;;;5043144;28;20046;-87
2022/04/19 08:15:10;;;;;;;17.67;11.98;;;8.80;53.40;;;;;;5029813;28;20015;-87
2022/04/19 08:17:37;;;;;;;18.20;11.27;;;8.50;60.20;;;;;;5029397;28;20050;-87
2022/04/19 08:20:04;;;;;;;18.48;11.10;;;8.10;65.70;;;;;;5033690;28;20037;-88
2022/04/19 08:22:30;;;;;;;17.85;11.63;;;8.10;65.20;;;;;;5047382;28;20454;-86
2022/04/19 08:24:56;;;;;;;15.93;11.30;;;8.00;64.80;;;;;;5030990;28;20021;-87
2022/04/19 08:27:22;;;;;;;17.73;10.95;;;8.10;66.10;;;;;;5032457;28;20021;-85
2022/04/19 08:29:48;;;;;;;16.88;11.27;;;8.20;65.50;;;;;;5031252;28;20116;-85
2022/04/19 08:32:14;;;;;;;18.20;11.50;;;8.20;64.20;;;;;;5032309;28;20017;-85
2022/04/19 08:34:41;;;;;;;17.10;12.32;;;8.00;65.60;;;;;;5032423;28;20475;-84
2022/04/19 08:37:07;;;;;;;14.98;10.82;;;7.90;65.60;;;;;;5030961;28;20032;-86
2022/04/19 08:39:33;;;;;;;19.20;12.75;;;8.10;65.90;;;;;;5031492;28;20463;-85
2022/04/19 08:41:59;;;;;;;18.10;12.15;;;8.10;67.30;;;;;;5030821;28;20098;-85
2022/04/19 08:44:25;;;;;;;17.40;12.32;;;7.80;69.20;;;;;;5031461;28;20109;-86
2022/04/19 08:46:57;;;;;;;21.45;13.25;;;7.90;69.90;;;;;;5031295;28;20029;-86
2022/04/19 08:49:24;;;;;;;18.27;13.48;;;7.60;69.90;;;;;;5032470;28;20025;-85
2022/04/19 08:51:50;;;;;;;17.15;12.57;;;7.40;70.50;;;;;;5030632;28;20466;-85
2022/04/19 08:59:44;;;;;;;19.05;12.68;;;7.20;72.80;;;;;;5051060;28;20047;-87
2022/04/19 09:02:23;;;;;;;19.23;13.88;;;6.90;73.20;;;;;;5054520;28;20040;-85
2022/04/19 09:17:03;;;;;;;19.48;14.98;;;6.70;73.20;;;;;;5091667;27;20405;-74
2022/04/19 09:19:29;;;;;;;23.10;15.00;;;6.80;75.00;;;;;;5069982;28;20033;-72
2022/04/19 09:21:55;;;;;;;16.50;12.60;;;6.60;75.20;;;;;;5069994;28;20016;-72
2022/04/19 09:24:25;;;;;;;20.77;14.60;;;6.60;75.50;;;;;;5070295;28;20036;-72
2022/04/19 09:26:51;;;;;;;21.98;13.52;;;6.60;76.20;;;;;;5069010;28;20385;-74
2022/04/19 09:29:21;;;;;;;20.85;14.77;;;6.60;75.50;;;;;;5070154;28;20044;-72
2022/04/19 09:31:51;;;;;;;24.63;17.95;;;6.40;76.60;;;;;;5070174;28;20082;-75
2022/04/19 09:34:23;;;;;;;24.70;17.20;;;6.20;79.00;;;;;;5068445;28;20060;-75
2022/04/19 09:36:53;;;;;;;;;;;6.20;80.60;;;;;;5070114;28;20405;-75
2022/04/19 09:39:28;;;;;;;21.90;14.40;;;6.20;79.60;;;;;;5070035;28;20357;-75
2022/04/19 09:42:04;;;;;;;22.08;16.27;;;6.10;80.30;;;;;;5069996;28;20021;-74
2022/04/19 09:44:36;;;;;;;25.50;18.05;;;6.00;82.70;;;;;;5070062;28;20051;-74
2022/04/19 09:47:06;;;;;;;25.30;17.83;;;5.80;86.20;;;;;;5068064;28;20021;-75
2022/04/19 09:49:46;;;;;;;33.13;22.70;;;5.80;90.90;;;;;;5069381;28;20017;-76
2022/04/19 09:52:44;;;;;;;38.33;24.35;;;5.60;92.70;;;;;;5069485;28;20028;-74
2022/04/19 09:55:11;;;;;;;33.78;21.45;;;5.50;93.90;;;;;;5069698;28;20019;-75
2022/04/19 09:57:39;;;;;;;33.30;23.00;;;5.20;89.80;;;;;;5068465;28;20021;-75
2022/04/19 10:00:07;;;;;;;34.00;22.02;;;5.30;91.50;;;;;;5068451;28;20043;-74
2022/04/19 10:08:20;;;;;;;19.85;13.57;;;5.30;94.30;;;;;;5069823;28;20044;-75
2022/04/19 10:10:48;;;;;;;21.15;15.30;;;5.30;92.20;;;;;;5067980;28;20032;-75
2022/04/19 10:13:17;;;;;;;23.25;16.75;;;5.40;88.00;;;;;;5067893;28;20024;-74
2022/04/19 10:15:42;;;;;;;22.00;16.00;;;5.50;88.90;;;;;;5066960;28;20060;-75
2022/04/19 10:18:08;;;;;;;23.38;15.60;;;5.50;84.30;;;;;;5054303;28;20016;-75
2022/04/19 10:20:44;;;;;;;21.20;14.75;;;5.60;84.30;;;;;;5051136;28;20117;-75
2022/04/19 10:23:11;;;;;;;18.00;13.45;;;5.60;81.80;;;;;;5053711;28;20032;-75
2022/04/19 10:25:45;;;;;;;17.30;13.75;;;5.70;80.50;;;;;;5055011;28;20094;-74
2022/04/19 10:28:27;;;;;;;21.75;13.43;;;5.70;80.80;;;;;;5055165;28;20074;-74
2022/04/19 10:30:53;;;;;;;36.38;21.88;;;5.80;81.00;;;;;;5054957;28;20087;-75
2022/04/19 10:33:38;;;;;;;26.10;19.05;;;5.80;87.10;;;;;;5053588;28;20128;-75
2022/04/19 10:36:11;;;;;;;22.75;16.55;;;5.80;92.80;;;;;;5054435;28;20033;-74
2022/04/19 10:38:37;;;;;;;26.02;16.88;;;5.80;92.30;;;;;;5053608;28;20492;-76
2022/04/19 10:41:03;;;;;;;27.40;18.08;;;5.70;93.20;;;;;;5054815;28;20016;-74
2022/04/19 10:43:29;;;;;;;25.20;18.63;;;5.70;96.90;;;;;;5049118;28;20447;-75
2022/04/19 10:46:19;;;;;;;23.25;16.30;;;5.60;96.00;;;;;;5051636;28;20087;-74
2022/04/19 10:49:24;;;;;;;24.30;15.18;;;5.50;96.80;;;;;;5055182;28;20052;-75
2022/04/19 10:51:59;;;;;;;16.25;12.07;;;5.20;97.40;;;;;;5054005;28;20553;-74
2022/04/19 10:55:02;;;;;;;15.82;12.55;;;4.80;99.50;;;;;;5056199;28;20064;-76
2022/04/19 11:00:44;;;;;;;28.60;20.45;;;3.90;99.90;;;;;;5054941;28;20036;-73
2022/04/19 11:03:09;;;;;;;27.67;18.48;;;3.70;99.90;;;;;;5054943;28;20043;-74
2022/04/19 11:05:43;;;;;;;21.40;16.05;;;3.80;99.90;;;;;;5053298;28;20039;-74
2022/04/19 11:08:30;;;;;;;329.27;120.38;;;3.90;99.90;;;;;;5055278;28;20025;-73
2022/04/19 11:10:55;;;;;;;77.22;30.63;;;4.00;99.90;;;;;;5053697;28;20313;-74
2022/04/19 11:13:37;;;;;;;91.45;62.13;;;3.90;99.90;;;;;;5055160;28;20099;-74
2022/04/19 11:16:05;;;;;;;81.47;55.25;;;3.90;99.90;;;;;;5051122;28;20076;-74
2022/04/19 11:18:55;;;;;;;54.90;38.08;;;3.70;99.90;;;;;;5052052;28;20036;-74
2022/04/19 11:21:56;;;;;;;84.55;56.97;;;3.70;99.90;;;;;;5053862;28;20020;-74
2022/04/19 11:25:03;;;;;;;65.22;42.38;;;3.60;99.90;;;;;;5054029;28;20025;-74
2022/04/19 11:27:53;;;;;;;31.92;21.50;;;3.70;99.90;;;;;;5052168;28;20079;-74
2022/04/19 11:30:23;;;;;;;29.95;20.20;;;3.90;99.90;;;;;;5054115;28;20052;-74
2022/04/19 11:32:51;;;;;;;31.73;18.55;;;4.00;99.90;;;;;;5052340;28;20025;-75
2022/04/19 11:35:17;;;;;;;29.85;20.27;;;4.10;99.90;;;;;;5052436;28;20024;-75
2022/04/19 11:37:43;;;;;;;38.40;23.70;;;4.20;99.90;;;;;;5052516;28;20024;-75
2022/04/19 11:48:49;;;;;;;37.20;24.20;;;4.20;99.90;;;;;;5054217;28;20120;-74
2022/04/19 11:51:22;;;;;;;44.33;25.02;;;4.30;99.90;;;;;;5052936;28;20478;-75
2022/04/19 11:53:49;;;;;;;42.50;26.15;;;4.40;99.90;;;;;;5053017;28;20454;-75
2022/04/19 11:56:16;;;;;;;45.38;26.33;;;4.60;99.90;;;;;;5054276;28;20029;-75
2022/04/19 11:58:46;;;;;;;47.28;28.00;;;4.70;99.90;;;;;;5052776;28;20541;-75
2022/04/19 12:01:14;;;;;;;41.25;26.10;;;5.00;99.90;;;;;;5054187;28;20068;-75
2022/04/19 12:03:39;;;;;;;36.35;21.95;;;5.00;99.90;;;;;;5052377;28;20021;-75
2022/04/19 12:06:15;;;;;;;37.38;27.55;;;5.10;99.90;;;;;;5053853;28;20371;-75
2022/04/19 12:08:46;;;;;;;38.55;26.88;;;5.20;99.90;;;;;;5054053;28;20021;-76
2022/04/19 12:11:26;;;;;;;30.33;19.55;;;5.40;99.90;;;;;;5052741;28;20020;-76
2022/04/19 12:13:52;;;;;;;43.88;28.20;;;5.40;99.90;;;;;;5054072;28;20382;-77
2022/04/19 12:16:34;;;;;;;110.05;68.53;;;5.70;99.90;;;;;;5052563;28;20132;-76
2022/04/19 12:19:02;;;;;;;66.30;44.63;;;6.00;99.90;;;;;;5043351;28;20493;-77
2022/04/19 12:21:46;;;;;;;41.35;24.92;;;6.40;99.90;;;;;;5051676;28;20037;-76
2022/04/19 12:24:26;;;;;;;22.73;14.82;;;6.70;99.90;;;;;;5051732;28;20021;-76
2022/04/19 12:27:07;;;;;;;67.85;45.60;;;7.00;89.80;;;;;;5051465;28;20035;-77
2022/04/19 12:29:34;;;;;;;39.90;24.50;;;7.40;95.80;;;;;;5050740;28;20021;-77
2022/04/19 12:32:02;;;;;;;25.90;16.88;;;7.60;78.40;;;;;;5051242;28;20017;-77
2022/04/19 12:34:35;;;;;;;19.05;12.65;;;7.90;78.00;;;;;;5052245;28;20085;-77
2022/04/19 12:37:12;;;;;;;22.48;13.75;;;8.10;72.00;;;;;;5051293;28;20028;-77
2022/04/19 12:39:39;;;;;;;67.32;30.40;;;8.50;76.50;;;;;;5052317;28;20028;-77
2022/04/19 12:42:11;;;;;;;30.25;16.63;;;8.70;66.70;;;;;;5052174;28;20064;-77
2022/04/19 12:44:38;;;;;;;;;;;8.70;65.30;;;;;;5052859;28;20509;-76
2022/04/19 12:47:17;;;;;;;11.13;8.13;;;8.60;62.70;;;;;;5050905;28;19912;-76
2022/04/19 12:49:44;;;;;;;10.23;7.88;;;8.70;62.70;;;;;;5052130;28;20025;-76
2022/04/19 12:52:11;;;;;;;8.85;7.43;;;8.80;60.60;;;;;;5051053;28;20505;-77
2022/04/19 12:54:39;;;;;;;47.10;18.67;;;8.60;58.90;;;;;;5052453;28;20549;-76
2022/04/19 12:57:14;;;;;;;44.28;17.17;;;8.50;61.00;;;;;;5052300;28;20029;-77
2022/04/19 12:59:40;;;;;;;78.78;28.85;;;8.30;63.10;;;;;;5051090;28;20116;-77
2022/04/19 13:02:06;;;;;;;155.88;51.88;;;8.20;62.60;;;;;;5051005;28;20025;-76
2022/04/19 13:04:32;;;;;;;25.60;11.82;;;8.30;62.80;;;;;;5052712;28;20451;-75
2022/04/19 13:12:26;;;;;;;19.23;9.80;;;7.90;62.90;;;;;;5035093;28;20040;-75
2022/04/19 13:14:57;;;;;;;14.40;8.85;;;7.80;62.30;;;;;;5034449;28;20045;-75
2022/04/19 13:17:24;;;;;;;74.28;27.58;;;7.90;63.40;;;;;;5051867;28;20074;-76
2022/04/19 13:19:50;;;;;;;27.55;13.98;;;8.10;63.90;;;;;;5039956;28;20025;-77
2022/04/19 13:22:16;;;;;;;10.85;7.10;;;8.10;62.00;;;;;;5031747;28;20037;-75
2022/04/19 13:24:42;;;;;;;10.70;7.35;;;8.20;61.80;;;;;;5031718;28;20115;-77
2022/04/19 13:27:10;;;;;;;12.35;7.82;;;8.30;60.50;;;;;;5039141;28;20389;-77
2022/04/19 13:29:37;;;;;;;8.80;6.95;;;8.30;61.40;;;;;;5041281;28;20021;-73
2022/04/19 13:32:03;;;;;;;9.35;7.28;;;8.20;59.50;;;;;;5049692;28;20112;-74
2022/04/19 13:34:30;;;;;;;9.40;7.75;;;8.20;61.30;;;;;;5052473;28;20049;-75
2022/04/19 13:36:57;;;;;;;8.80;6.95;;;8.20;59.90;;;;;;5045638;28;20026;-76
2022/04/19 13:39:23;;;;;;;8.52;7.55;;;8.20;59.40;;;;;;5030566;28;20075;-75
2022/04/19 13:41:49;;;;;;;8.77;7.18;;;8.30;58.30;;;;;;5030208;28;20025;-76
2022/04/19 13:44:15;;;;;;;9.75;7.75;;;8.30;59.00;;;;;;5030463;28;20035;-76
2022/04/19 13:46:42;;;;;;;8.27;6.47;;;8.40;59.00;;;;;;5032929;28;20021;-74
2022/04/19 13:49:08;;;;;;;53.85;21.55;;;8.30;57.40;;;;;;5031771;28;20038;-76
2022/04/19 13:51:35;;;;;;;180.35;72.97;;;8.30;58.20;;;;;;5033571;28;20491;-76
2022/04/19 13:54:02;;;;;;;19.00;11.98;;;8.40;58.60;;;;;;5034789;28;20024;-76
2022/04/19 13:56:29;;;;;;;9.77;6.72;;;8.30;57.80;;;;;;5034781;28;20029;-76